< < Back
Terminal Aerodrome Forecast


Current Version              Previous Versions:   1  2  3  4  5  6  7  8  9  

Terminal Aerodrome Forecast

001
FTUS42 KGSP 211700
TAFCLT
TAF
KCLT 211735Z 2118/2218 26009G16KT P6SM SCT060
     FM212300 24006KT P6SM BKN060
     FM220400 30005KT P6SM BKN050
     FM220800 36006KT P6SM SCT050 BKN250
     FM221400 02010G16KT P6SM FEW050 BKN250=

Latest METAR

992
SAUS70 KWBC 220000 RRB
MTRCLT
METAR KCLT 212352Z 21004KT 10SM SCT160 BKN250 24/18 A2988 RMK AO2 SLP110
T02440183 10294 20244 53007 $


USA.gov is the U.S. government's official web portal to all federal, state and local government web resources and services.